Time;durP1;ratioP1;P1;durP2;ratioP2;P2;SDS_P1;SDS_P2;PMS_P1;PMS_P2;Temp;Humidity;BMP_temperature;BMP_pressure;BME280_temperature;BME280_humidity;BME280_pressure;Samples;Min_cycle;Max_cycle;Signal;HPM_P1;HPM_P2
2023/07/16 00:02:05;;;;;;;5.80;2.33;;;;;;;13.39;100.00;99128.19;5014428;28;20050;-40
2023/07/16 00:04:32;;;;;;;8.48;2.78;;;;;;;13.38;100.00;99129.38;5013548;28;20053;-41
2023/07/16 00:07:03;;;;;;;10.98;2.63;;;;;;;13.40;100.00;99135.31;5014646;28;20069;-40
2023/07/16 00:09:30;;;;;;;17.48;2.67;;;;;;;13.37;100.00;99141.66;5014409;28;20042;-41
2023/07/16 00:11:57;;;;;;;9.98;3.13;;;;;;;13.33;100.00;99138.13;5013677;28;20053;-40
2023/07/16 00:14:24;;;;;;;13.00;3.33;;;;;;;13.33;100.00;99141.69;5013106;28;20096;-40
2023/07/16 00:16:50;;;;;;;10.30;2.33;;;;;;;13.33;100.00;99147.25;4996636;28;20060;-40
2023/07/16 00:19:17;;;;;;;7.85;2.50;;;;;;;13.34;100.00;99150.84;5014163;28;20035;-40
2023/07/16 00:21:44;;;;;;;7.82;2.33;;;;;;;13.31;100.00;99152.44;5014350;28;20053;-41
2023/07/16 00:24:11;;;;;;;9.40;2.50;;;;;;;13.29;100.00;99159.59;5013980;28;20041;-40
2023/07/16 00:26:38;;;;;;;9.95;3.47;;;;;;;13.28;100.00;99169.13;5013095;28;20050;-41
2023/07/16 00:29:04;;;;;;;6.15;2.03;;;;;;;13.29;100.00;99165.16;5012639;28;20092;-41
2023/07/16 00:31:31;;;;;;;11.70;4.38;;;;;;;13.28;100.00;99178.25;5011349;28;20476;-41
2023/07/16 00:33:58;;;;;;;11.00;2.80;;;;;;;13.28;100.00;99177.44;5013869;28;20038;-41
2023/07/16 00:36:25;;;;;;;9.73;2.40;;;;;;;13.25;100.00;99175.47;5014170;28;20077;-48
2023/07/16 00:38:52;;;;;;;8.80;2.15;;;;;;;13.25;100.00;99176.25;5013752;28;20046;-41
2023/07/16 00:41:18;;;;;;;11.10;3.72;;;;;;;13.25;100.00;99194.94;5012909;28;20053;-40
2023/07/16 00:43:45;;;;;;;10.65;4.28;;;;;;;13.23;100.00;99178.66;5013470;28;20038;-41
2023/07/16 00:46:12;;;;;;;9.13;2.67;;;;;;;13.22;100.00;99181.81;5012907;28;20054;-40
2023/07/16 00:48:41;;;;;;;16.63;3.13;;;;;;;13.20;100.00;99187.00;5013507;28;20093;-40
2023/07/16 00:51:09;;;;;;;9.13;3.05;;;;;;;13.20;100.00;99181.44;4996196;28;20053;-41
2023/07/16 00:53:35;;;;;;;9.45;2.50;;;;;;;13.22;100.00;99198.50;5013765;28;20038;-41
2023/07/16 00:56:03;;;;;;;7.53;2.00;;;;;;;13.22;100.00;99202.06;4995519;28;20484;-44
2023/07/16 00:58:29;;;;;;;7.18;2.30;;;;;;;13.20;100.00;99196.13;5012181;28;20136;-41
2023/07/16 01:00:56;;;;;;;8.90;2.42;;;;;;;13.17;100.00;99204.47;5012805;28;20832;-41
2023/07/16 01:03:23;;;;;;;8.73;2.30;;;;;;;13.16;100.00;99211.19;5012777;28;20046;-41
2023/07/16 01:06:15;;;;;;;9.02;2.20;;;;;;;13.15;100.00;99215.19;5012967;28;20058;-41
2023/07/16 01:09:07;;;;;;;12.23;2.55;;;;;;;13.17;100.00;99212.81;5013534;28;20050;-41
2023/07/16 01:11:36;;;;;;;8.68;2.42;;;;;;;13.17;100.00;99218.34;5003162;28;20057;-41
2023/07/16 01:14:03;;;;;;;7.35;2.40;;;;;;;13.15;100.00;99215.19;5012824;28;20042;-41
2023/07/16 01:16:30;;;;;;;7.72;2.00;;;;;;;13.13;100.00;99239.81;4994071;28;20488;-40
2023/07/16 01:18:58;;;;;;;9.38;4.68;;;;;;;13.13;100.00;99240.59;5012065;28;20404;-41
2023/07/16 01:21:49;;;;;;;11.95;3.40;;;;;;;13.14;100.00;99230.28;5013361;28;20045;-41
2023/07/16 01:24:45;;;;;;;13.15;2.35;;;;;;;13.14;100.00;99235.81;4978450;28;20060;-41
2023/07/16 01:27:31;;;;;;;7.65;2.13;;;;;;;13.12;100.00;99243.78;4995310;28;20057;-42
2023/07/16 01:30:02;;;;;;;12.48;3.72;;;;;;;13.09;100.00;99239.00;5011857;28;20042;-41
2023/07/16 01:32:33;;;;;;;5.80;2.77;;;;;;;13.07;100.00;99244.97;5012825;28;20046;-40
2023/07/16 01:35:02;;;;;;;10.80;2.25;;;;;;;13.06;100.00;99256.44;5011813;28;20084;-40
2023/07/16 01:37:28;;;;;;;15.68;2.67;;;;;;;13.04;100.00;99248.53;5012014;28;20081;-40
2023/07/16 01:39:55;;;;;;;14.35;3.15;;;;;;;13.02;100.00;99247.34;5012249;28;20153;-41
2023/07/16 01:42:22;;;;;;;11.13;2.85;;;;;;;12.98;100.00;99254.84;5012875;28;20437;-42
2023/07/16 01:44:49;;;;;;;8.35;2.95;;;;;;;12.96;100.00;99257.25;5012503;28;20065;-41
2023/07/16 01:47:31;;;;;;;11.25;2.83;;;;;;;12.89;100.00;99251.69;5012584;28;20069;-41
2023/07/16 01:49:58;;;;;;;7.85;2.25;;;;;;;12.87;100.00;99267.97;5012447;28;20037;-40
2023/07/16 01:52:25;;;;;;;10.05;2.35;;;;;;;12.84;100.00;99261.19;5012507;28;20046;-41
2023/07/16 01:54:53;;;;;;;16.08;4.03;;;;;;;12.83;100.00;99270.75;5011542;28;20432;-41
2023/07/16 01:57:20;;;;;;;10.95;2.75;;;;;;;12.80;100.00;99271.53;5011096;28;20038;-41
2023/07/16 01:59:47;;;;;;;11.63;2.95;;;;;;;12.78;100.00;99276.69;5012490;28;20040;-41
2023/07/16 02:02:14;;;;;;;7.07;3.33;;;;;;;12.76;100.00;99284.63;5011981;28;20058;-41
2023/07/16 02:04:40;;;;;;;8.13;2.28;;;;;;;12.76;100.00;99277.06;5011808;28;20133;-41
2023/07/16 02:07:07;;;;;;;12.15;2.65;;;;;;;12.78;100.00;99285.81;5012541;28;20496;-40
2023/07/16 02:09:35;;;;;;;18.63;4.00;;;;;;;12.81;100.00;99295.34;5011957;28;20038;-40
2023/07/16 02:12:02;;;;;;;16.00;3.90;;;;;;;12.81;100.00;99301.66;5011419;28;20073;-41
2023/07/16 02:14:30;;;;;;;8.10;3.15;;;;;;;12.80;100.00;99305.66;5009132;28;20084;-41
2023/07/16 02:16:56;;;;;;;7.65;2.38;;;;;;;12.80;100.00;99300.09;4993918;28;20045;-41
2023/07/16 02:19:25;;;;;;;5.95;1.92;;;;;;;12.82;100.00;99303.28;5011957;28;20459;-41
2023/07/16 02:21:52;;;;;;;8.85;2.53;;;;;;;12.83;100.00;99296.53;5012003;28;20046;-41
2023/07/16 02:24:19;;;;;;;7.32;2.22;;;;;;;12.81;100.00;99301.66;5010619;28;20060;-41
2023/07/16 02:26:46;;;;;;;8.93;2.38;;;;;;;12.77;100.00;99306.44;5011741;28;20503;-41
2023/07/16 02:29:12;;;;;;;7.32;2.00;;;;;;;12.76;100.00;99309.63;5011146;28;20046;-40
2023/07/16 02:31:40;;;;;;;15.00;2.05;;;;;;;12.73;100.00;99313.97;5009116;28;20042;-41
2023/07/16 02:34:06;;;;;;;8.23;2.65;;;;;;;12.71;100.00;99309.97;5011708;28;20396;-41
2023/07/16 02:36:33;;;;;;;12.43;2.85;;;;;;;12.69;100.00;99310.38;5011713;28;20048;-41
2023/07/16 02:39:01;;;;;;;3.97;1.50;;;;;;;12.67;100.00;99323.88;4993409;28;20415;-41
2023/07/16 02:41:27;;;;;;;8.23;2.97;;;;;;;12.63;100.00;99325.03;5011774;28;20084;-41
2023/07/16 02:44:05;;;;;;;8.07;3.33;;;;;;;12.59;100.00;99322.28;4993419;28;20050;-41
2023/07/16 02:46:32;;;;;;;6.68;1.88;;;;;;;12.57;100.00;99330.22;5006516;28;20160;-41
2023/07/16 02:49:00;;;;;;;4.53;1.85;;;;;;;12.54;100.00;99327.41;4994308;28;20053;-41
2023/07/16 02:51:27;;;;;;;7.28;2.08;;;;;;;12.51;100.00;99331.78;5011632;28;20120;-41
2023/07/16 02:53:54;;;;;;;4.57;2.00;;;;;;;12.50;100.00;99335.72;5011479;28;20056;-41
2023/07/16 02:56:21;;;;;;;9.57;1.77;;;;;;;12.50;100.00;99335.72;5009970;28;20492;-40
2023/07/16 02:58:47;;;;;;;10.25;1.92;;;;;;;12.49;100.00;99338.91;5011354;28;20052;-41
2023/07/16 03:01:15;;;;;;;16.00;4.03;;;;;;;12.47;100.00;99335.72;5048070;22;20120;-42
2023/07/16 03:03:42;;;;;;;7.40;1.75;;;;;;;12.49;100.00;99350.00;4991829;28;20046;-41
2023/07/16 03:06:09;;;;;;;7.00;2.25;;;;;;;12.52;100.00;99338.91;4991609;28;20129;-41
2023/07/16 03:08:36;;;;;;;11.00;2.85;;;;;;;12.56;100.00;99341.69;4991872;28;20053;-41
2023/07/16 03:11:02;;;;;;;9.93;2.55;;;;;;;12.59;100.00;99346.47;4991645;28;20049;-42
2023/07/16 03:13:29;;;;;;;10.05;2.00;;;;;;;12.60;100.00;99351.59;4991794;28;20047;-41
2023/07/16 03:15:56;;;;;;;11.00;3.13;;;;;;;12.59;100.00;99352.81;4991481;28;20057;-41
2023/07/16 03:18:29;;;;;;;9.65;2.35;;;;;;;12.58;100.00;99356.78;4990529;28;20070;-41
2023/07/16 03:20:58;;;;;;;9.13;2.55;;;;;;;12.57;100.00;99355.19;4991571;28;20428;-41
2023/07/16 03:23:25;;;;;;;8.35;1.70;;;;;;;12.57;100.00;99371.06;4991801;28;20046;-41
2023/07/16 03:25:52;;;;;;;8.73;2.30;;;;;;;12.53;100.00;99368.25;4995081;28;20428;-41
2023/07/16 03:28:19;;;;;;;9.10;2.53;;;;;;;12.51;100.00;99378.97;4978351;28;20392;-41
2023/07/16 03:30:50;;;;;;;8.85;2.10;;;;;;;12.48;100.00;99388.06;4995350;28;20053;-41
2023/07/16 03:33:17;;;;;;;9.70;2.00;;;;;;;12.50;100.00;99391.25;4978141;28;20088;-41
2023/07/16 03:35:45;;;;;;;6.50;1.90;;;;;;;12.52;100.00;99383.31;4995388;28;20338;-41
2023/07/16 03:38:13;;;;;;;7.30;2.30;;;;;;;12.54;100.00;99397.63;4995391;28;20056;-41
2023/07/16 03:40:46;;;;;;;8.60;2.20;;;;;;;12.56;100.00;99395.25;4995424;28;20100;-41
2023/07/16 03:43:13;;;;;;;9.50;2.38;;;;;;;12.54;100.00;99397.63;4976772;28;20385;-41
2023/07/16 03:45:40;;;;;;;12.77;2.67;;;;;;;12.54;100.00;99407.94;4995280;28;20042;-41
2023/07/16 03:48:08;;;;;;;7.00;2.17;;;;;;;12.52;100.00;99416.63;4995235;28;20105;-39
2023/07/16 03:50:37;;;;;;;6.90;1.70;;;;;;;12.54;100.00;99422.59;4995144;28;20064;-39
2023/07/16 03:53:04;;;;;;;3.72;2.35;;;;;;;12.54;100.00;99428.16;4995247;28;20124;-40
2023/07/16 03:55:31;;;;;;;8.82;1.80;;;;;;;12.54;100.00;99430.94;4978005;28;20042;-39
2023/07/16 03:57:59;;;;;;;3.75;1.70;;;;;;;12.56;100.00;99436.88;4995259;28;20093;-39
2023/07/16 04:00:26;;;;;;;6.35;1.65;;;;;;;12.57;100.00;99446.00;4977863;28;20086;-39
2023/07/16 04:02:52;;;;;;;4.75;1.38;;;;;;;12.58;100.00;99442.84;4994516;28;20050;-39
2023/07/16 04:05:20;;;;;;;5.28;1.27;;;;;;;12.60;100.00;99451.56;4994936;28;20133;-39
2023/07/16 04:07:50;;;;;;;6.70;1.67;;;;;;;12.62;100.00;99448.41;4994829;28;20065;-40
2023/07/16 04:10:16;;;;;;;7.20;1.70;;;;;;;12.63;100.00;99449.97;4993766;28;20061;-39
2023/07/16 04:12:43;;;;;;;4.75;1.70;;;;;;;12.64;100.00;99460.72;4994708;28;20058;-45
2023/07/16 04:15:10;;;;;;;5.57;1.35;;;;;;;12.63;100.00;99459.13;4994962;28;20145;-40
2023/07/16 04:17:37;;;;;;;3.60;1.33;;;;;;;12.63;100.00;99464.66;4993890;28;20050;-39
2023/07/16 04:20:06;;;;;;;6.25;2.38;;;;;;;12.63;100.00;99475.78;4977496;28;20121;-39
2023/07/16 04:22:34;;;;;;;7.50;1.80;;;;;;;12.65;100.00;99480.97;4994365;28;20076;-40
2023/07/16 04:25:01;;;;;;;5.93;1.50;;;;;;;12.68;100.00;99477.41;4994409;28;20064;-40
2023/07/16 04:27:28;;;;;;;7.00;1.40;;;;;;;12.66;100.00;99480.56;4994444;28;20046;-40
2023/07/16 04:29:54;;;;;;;3.45;1.05;;;;;;;12.68;100.00;99482.97;4994448;28;20570;-39
2023/07/16 04:32:21;;;;;;;5.45;2.15;;;;;;;12.67;100.00;99479.38;4994399;28;20046;-39
2023/07/16 04:34:48;;;;;;;6.28;1.25;;;;;;;12.66;100.00;99482.53;4994453;28;20062;-39
2023/07/16 04:37:15;;;;;;;5.68;1.67;;;;;;;12.68;100.00;99499.63;4993622;28;20054;-39
2023/07/16 04:39:42;;;;;;;6.78;1.65;;;;;;;12.67;100.00;99498.81;4993091;28;20105;-39
2023/07/16 04:42:09;;;;;;;2.75;1.30;;;;;;;12.70;100.00;99506.38;4994433;28;20061;-41
2023/07/16 04:44:35;;;;;;;2.80;1.13;;;;;;;12.72;100.00;99509.56;4994177;28;20046;-42
2023/07/16 04:47:03;;;;;;;6.72;2.13;;;;;;;12.71;100.00;99513.50;4994062;28;20042;-42
2023/07/16 04:49:33;;;;;;;10.52;2.72;;;;;;;12.72;100.00;99515.09;4994100;28;20179;-41
2023/07/16 04:52:00;;;;;;;4.25;1.80;;;;;;;12.72;100.00;99520.66;4981434;28;20499;-41
2023/07/16 04:54:27;;;;;;;3.25;1.42;;;;;;;12.72;100.00;99520.66;4993738;28;20050;-42
2023/07/16 04:56:53;;;;;;;4.70;1.67;;;;;;;12.73;100.00;99536.13;4981589;28;20042;-41
2023/07/16 04:59:20;;;;;;;5.40;1.65;;;;;;;12.74;100.00;99532.16;4993693;28;20435;-42
2023/07/16 05:01:47;;;;;;;2.65;1.00;;;;;;;12.76;100.00;99535.34;4993561;28;20050;-41
2023/07/16 05:04:14;;;;;;;4.80;1.60;;;;;;;12.75;100.00;99539.31;4993564;28;20128;-43
2023/07/16 05:06:41;;;;;;;9.18;1.90;;;;;;;12.78;100.00;99546.88;4994028;28;20049;-41
2023/07/16 05:09:08;;;;;;;5.65;1.38;;;;;;;12.80;100.00;99550.06;4992164;28;20440;-41
2023/07/16 05:11:34;;;;;;;5.20;1.73;;;;;;;12.82;100.00;99556.03;4993736;28;20047;-41
2023/07/16 05:14:01;;;;;;;4.88;1.50;;;;;;;12.84;100.00;99552.84;4993473;28;20066;-41
2023/07/16 05:16:28;;;;;;;7.97;0.88;;;;;;;12.86;100.00;99574.69;4993750;28;20054;-41
2023/07/16 05:18:56;;;;;;;2.58;1.90;;;;;;;12.88;100.00;99573.13;4993516;28;20050;-41
2023/07/16 05:21:22;;;;;;;5.95;1.48;;;;;;;12.89;100.00;99576.69;4993364;28;20105;-41
2023/07/16 05:23:49;;;;;;;4.75;1.27;;;;;;;12.91;100.00;99577.91;4993277;28;20112;-41
2023/07/16 05:26:16;;;;;;;5.03;0.98;;;;;;;12.94;100.00;99584.66;4993211;28;20140;-41
2023/07/16 05:28:43;;;;;;;7.50;1.42;;;;;;;12.95;100.00;99580.66;4993452;28;20117;-41
2023/07/16 05:31:14;;;;;;;7.38;1.25;;;;;;;12.97;100.00;99589.44;4993230;28;20503;-42
2023/07/16 05:33:41;;;;;;;5.47;1.40;;;;;;;13.01;100.00;99587.47;4992970;28;20065;-41
2023/07/16 05:36:07;;;;;;;3.38;1.05;;;;;;;13.03;100.00;99594.22;4992929;28;20049;-41
2023/07/16 05:38:34;;;;;;;4.25;1.30;;;;;;;13.07;100.00;99592.31;4992175;28;20439;-42
2023/07/16 05:41:05;;;;;;;6.53;1.17;;;;;;;13.07;100.00;99592.31;4992893;28;20045;-42
2023/07/16 05:43:32;;;;;;;4.13;0.95;;;;;;;13.07;100.00;99597.06;4992644;28;20507;-42
2023/07/16 05:45:59;;;;;;;6.88;1.70;;;;;;;13.07;100.00;99608.16;4992874;28;20387;-41
2023/07/16 05:48:27;;;;;;;5.75;1.10;;;;;;;13.06;100.00;99606.53;4992630;28;20046;-42
2023/07/16 05:50:53;;;;;;;5.25;1.42;;;;;;;13.08;100.00;99604.22;4993022;28;20507;-42
2023/07/16 05:53:20;;;;;;;4.50;1.27;;;;;;;13.09;100.00;99617.72;4992733;28;20089;-41
2023/07/16 05:55:49;;;;;;;6.85;1.30;;;;;;;13.11;100.00;99615.31;4992982;28;20062;-42
2023/07/16 05:58:16;;;;;;;4.57;1.00;;;;;;;13.13;100.00;99623.28;4992592;28;20101;-42
2023/07/16 06:00:43;;;;;;;8.30;1.63;;;;;;;13.15;100.00;99634.81;4992503;28;20405;-42
2023/07/16 06:03:10;;;;;;;5.25;1.15;;;;;;;13.18;100.00;99642.38;4992849;28;20047;-41
2023/07/16 06:05:37;;;;;;;3.92;1.25;;;;;;;13.22;100.00;99645.94;4992658;28;20042;-41
2023/07/16 06:08:04;;;;;;;2.17;1.10;;;;;;;13.27;100.00;99640.03;4991271;28;20400;-42
2023/07/16 06:10:34;;;;;;;6.13;1.20;;;;;;;13.31;100.00;99646.41;4990728;28;20042;-42
2023/07/16 06:13:01;;;;;;;9.02;1.67;;;;;;;13.32;100.00;99645.19;4992451;28;20077;-41
2023/07/16 06:15:27;;;;;;;7.97;1.38;;;;;;;13.37;100.00;99648.41;4992309;28;20046;-41
2023/07/16 06:17:54;;;;;;;4.90;1.38;;;;;;;13.45;100.00;99646.44;4992265;28;20045;-42
2023/07/16 06:20:21;;;;;;;7.40;2.10;;;;;;;13.51;100.00;99661.56;4992384;28;20105;-42
2023/07/16 06:22:48;;;;;;;2.60;0.90;;;;;;;13.56;100.00;99658.41;4992356;28;20042;-48
2023/07/16 06:25:15;;;;;;;5.35;1.60;;;;;;;13.60;100.00;99653.69;4992022;28;20078;-41
2023/07/16 06:27:42;;;;;;;1.92;0.75;;;;;;;13.62;100.00;99662.41;4979211;28;20042;-43
2023/07/16 06:30:08;;;;;;;6.72;1.60;;;;;;;13.64;100.00;99654.47;4991997;28;20050;-43
2023/07/16 06:32:35;;;;;;;3.05;1.55;;;;;;;13.69;100.00;99668.00;4992337;28;20081;-42
2023/07/16 06:35:02;;;;;;;7.00;1.42;;;;;;;13.73;100.00;99668.81;4992119;28;20473;-42
2023/07/16 06:37:29;;;;;;;5.72;1.45;;;;;;;13.82;100.00;99666.44;4991980;28;20085;-42
2023/07/16 06:39:57;;;;;;;6.50;1.38;;;;;;;13.96;100.00;99677.63;4990367;28;20053;-41
2023/07/16 06:42:23;;;;;;;2.40;1.00;;;;;;;14.09;100.00;99674.47;4991989;28;20448;-42
2023/07/16 06:44:50;;;;;;;5.03;1.50;;;;;;;14.14;100.00;99680.44;4991829;28;20069;-42
2023/07/16 06:47:18;;;;;;;6.68;2.08;;;;;;;14.18;99.73;99683.25;4974876;28;20470;-42
2023/07/16 06:49:44;;;;;;;3.28;1.20;;;;;;;14.20;99.79;99687.22;4991553;28;20057;-42
2023/07/16 06:52:22;;;;;;;8.73;1.80;;;;;;;14.28;99.90;99677.69;4991929;28;20049;-42
2023/07/16 06:54:49;;;;;;;7.10;1.10;;;;;;;14.36;99.77;99682.09;4991895;28;20101;-42
2023/07/16 06:57:16;;;;;;;2.58;1.10;;;;;;;14.41;99.57;99686.47;4992135;28;20531;-42
2023/07/16 06:59:43;;;;;;;7.68;1.52;;;;;;;14.38;99.01;99698.41;4991149;28;20120;-42
2023/07/16 07:02:10;;;;;;;4.35;1.40;;;;;;;14.40;99.02;99698.81;4991718;28;20059;-42
2023/07/16 07:04:37;;;;;;;5.60;1.17;;;;;;;14.47;99.22;99702.41;4991648;28;20042;-42
2023/07/16 07:07:04;;;;;;;5.82;0.93;;;;;;;14.56;98.78;99708.38;4990498;28;20137;-44
2023/07/16 07:09:31;;;;;;;4.82;1.98;;;;;;;14.66;98.64;99711.56;4990767;28;20526;-42
2023/07/16 07:11:58;;;;;;;4.53;1.02;;;;;;;14.75;98.50;99712.75;4991919;28;20050;-42
2023/07/16 07:14:25;;;;;;;3.83;1.02;;;;;;;14.87;98.14;99731.88;4991308;28;20050;-43
2023/07/16 07:16:52;;;;;;;6.00;1.00;;;;;;;14.94;97.50;99714.34;4991679;28;20047;-43
2023/07/16 07:19:19;;;;;;;3.40;1.10;;;;;;;14.97;97.08;99731.06;4991620;28;20035;-42
2023/07/16 07:21:45;;;;;;;5.70;1.42;;;;;;;14.98;96.69;99729.09;4991481;28;20443;-43
2023/07/16 07:24:13;;;;;;;2.95;1.25;;;;;;;15.13;97.02;99739.81;4991501;28;20443;-43
2023/07/16 07:26:39;;;;;;;4.20;0.90;;;;;;;15.34;96.77;99749.34;4973890;28;20053;-42
2023/07/16 07:29:06;;;;;;;3.35;1.10;;;;;;;15.47;96.07;99753.31;4974418;28;20061;-43
2023/07/16 07:31:33;;;;;;;4.97;1.20;;;;;;;15.50;95.35;99742.16;4991708;28;20143;-42
2023/07/16 07:34:00;;;;;;;6.38;1.00;;;;;;;15.53;95.12;99752.53;4991135;28;20062;-43
2023/07/16 07:36:27;;;;;;;3.95;1.25;;;;;;;15.65;95.56;99754.88;4990690;28;20053;-42
2023/07/16 07:38:53;;;;;;;4.05;1.48;;;;;;;15.83;96.05;99760.41;4991441;28;20050;-43
2023/07/16 07:41:20;;;;;;;3.90;0.75;;;;;;;16.08;96.77;99752.72;4991479;28;20046;-41
2023/07/16 07:43:47;;;;;;;6.28;0.85;;;;;;;16.31;96.64;99763.38;4991359;28;20038;-41
2023/07/16 07:46:14;;;;;;;4.32;0.82;;;;;;;16.38;95.41;99763.34;4991452;28;20061;-41
2023/07/16 07:48:41;;;;;;;5.53;1.50;;;;;;;16.36;93.57;99774.91;4974017;28;20038;-41
2023/07/16 07:51:10;;;;;;;4.22;0.98;;;;;;;16.26;92.55;99778.56;4991368;28;20054;-41
2023/07/16 07:53:36;;;;;;;3.17;1.33;;;;;;;16.39;93.25;99787.25;4991210;28;20089;-43
2023/07/16 07:56:03;;;;;;;5.50;1.52;;;;;;;16.60;92.33;99784.38;4991340;28;20043;-41
2023/07/16 07:58:30;;;;;;;4.53;1.10;;;;;;;16.59;90.77;99782.81;4974027;28;20042;-40
2023/07/16 08:01:06;;;;;;;5.43;1.77;;;;;;;16.80;91.71;99779.06;4972939;28;20046;-48
2023/07/16 08:03:34;;;;;;;2.28;0.95;;;;;;;17.22;91.60;99789.91;4979961;28;20142;-41
2023/07/16 08:06:01;;;;;;;11.65;2.47;;;;;;;17.83;91.40;99801.31;4989639;28;20516;-41
2023/07/16 08:08:28;;;;;;;5.22;1.50;;;;;;;18.56;90.25;99810.84;4979887;28;20129;-42
2023/07/16 08:10:55;;;;;;;8.70;1.73;;;;;;;19.28;88.48;99797.28;4986112;28;20133;-41
2023/07/16 08:13:22;;;;;;;6.95;1.75;;;;;;;19.36;84.67;99807.19;4994670;28;20393;-41
2023/07/16 08:15:52;;;;;;;5.90;1.50;;;;;;;18.93;82.73;99812.69;4989210;28;20133;-41
2023/07/16 08:18:19;;;;;;;4.95;1.58;;;;;;;18.60;81.95;99810.78;4994638;28;20108;-43
2023/07/16 08:20:46;;;;;;;3.13;1.20;;;;;;;18.36;81.42;99823.09;4994446;28;20038;-41
2023/07/16 08:23:13;;;;;;;7.30;0.90;;;;;;;18.27;80.65;99820.03;4991052;28;20541;-44
2023/07/16 08:25:40;;;;;;;6.72;1.13;;;;;;;18.11;79.88;99817.78;4992919;28;20046;-45
2023/07/16 08:28:07;;;;;;;7.22;2.25;;;;;;;18.09;79.59;99814.63;4994002;28;20046;-41
2023/07/16 08:30:34;;;;;;;2.47;0.90;;;;;;;17.95;79.07;99815.56;4994770;28;20034;-41
2023/07/16 08:33:02;;;;;;;7.53;1.85;;;;;;;17.61;78.51;99809.94;4994185;28;20056;-41
2023/07/16 08:35:29;;;;;;;5.53;1.60;;;;;;;17.28;78.70;99819.03;4994667;28;20058;-43
2023/07/16 08:37:56;;;;;;;6.45;1.35;;;;;;;16.94;78.66;99818.88;4993752;28;20052;-43
2023/07/16 08:40:24;;;;;;;7.22;2.35;;;;;;;16.72;78.92;99825.03;4993695;28;20062;-41
2023/07/16 08:42:52;;;;;;;5.45;1.70;;;;;;;16.64;79.33;99831.88;4975698;28;20125;-41
2023/07/16 08:45:22;;;;;;;5.72;1.58;;;;;;;16.62;79.16;99825.91;4994412;28;20054;-41
2023/07/16 08:47:49;;;;;;;7.78;2.10;;;;;;;16.57;78.98;99837.50;4993986;28;20049;-40
2023/07/16 08:50:17;;;;;;;3.55;1.30;;;;;;;16.89;79.05;99832.53;4993882;28;20051;-41
2023/07/16 08:52:44;;;;;;;5.80;1.52;;;;;;;17.13;78.47;99831.53;4993648;28;20042;-41
2023/07/16 08:55:10;;;;;;;37.22;4.10;;;;;;;17.19;78.26;99841.06;4992984;28;20054;-41
2023/07/16 08:57:39;;;;;;;11.80;3.03;;;;;;;17.21;77.87;99847.03;4993981;28;20042;-42
2023/07/16 09:00:07;;;;;;;9.32;4.10;;;;;;;17.22;78.25;99840.25;4992138;28;20412;-41
2023/07/16 09:02:34;;;;;;;6.93;1.70;;;;;;;17.39;77.92;99844.94;4992460;28;20058;-41
2023/07/16 09:05:02;;;;;;;6.18;1.25;;;;;;;17.84;77.79;99854.13;4993661;28;20046;-41
2023/07/16 09:07:28;;;;;;;6.35;1.70;;;;;;;18.59;76.77;99852.03;4991022;28;20458;-43
2023/07/16 09:10:00;;;;;;;4.90;1.23;;;;;;;19.74;75.60;99858.28;4993700;28;20125;-41
2023/07/16 09:12:27;;;;;;;5.75;1.77;;;;;;;20.92;73.35;99867.53;4993355;28;20073;-42
2023/07/16 09:14:55;;;;;;;2.83;1.13;;;;;;;21.72;71.72;99868.84;4984164;28;20050;-42
2023/07/16 09:17:24;;;;;;;3.88;1.83;;;;;;;21.93;69.26;99868.31;4992160;28;20137;-43
2023/07/16 09:19:52;;;;;;;3.35;1.10;;;;;;;21.68;68.54;99862.53;5003096;28;20053;-43
2023/07/16 09:22:20;;;;;;;6.35;1.67;;;;;;;21.65;67.36;99863.41;4993054;28;20381;-42
2023/07/16 09:24:47;;;;;;;6.22;1.38;;;;;;;21.64;66.87;99861.81;4993142;28;20050;-39
2023/07/16 09:27:14;;;;;;;5.55;1.50;;;;;;;21.03;65.93;99868.09;4993095;28;20042;-43
2023/07/16 09:29:41;;;;;;;6.53;1.45;;;;;;;21.03;66.78;99865.28;4976165;28;20050;-41
2023/07/16 09:32:09;;;;;;;6.80;2.33;;;;;;;21.78;64.93;99869.91;4972854;28;20085;-40
2023/07/16 09:34:40;;;;;;;3.10;0.83;;;;;;;22.60;62.97;99877.72;4976444;28;20133;-40
2023/07/16 09:37:21;;;;;;;4.50;0.80;;;;;;;23.22;61.48;99876.22;4988164;28;20149;-41
2023/07/16 09:39:59;;;;;;;4.53;1.15;;;;;;;22.91;60.11;99878.81;4993199;28;20566;-41
2023/07/16 09:42:28;;;;;;;3.15;1.10;;;;;;;22.29;60.07;99880.19;4992846;28;20149;-42
2023/07/16 09:45:00;;;;;;;4.82;0.98;;;;;;;21.65;60.22;99885.94;4991715;28;20050;-41
2023/07/16 09:47:29;;;;;;;10.13;1.80;;;;;;;21.02;61.75;99877.75;4960131;28;20050;-42
2023/07/16 09:50:14;;;;;;;6.45;1.42;;;;;;;20.32;63.34;99884.91;4987560;28;20058;-39
2023/07/16 09:52:47;;;;;;;8.73;2.83;;;;;;;19.66;64.64;99882.09;4992943;28;20136;-39
2023/07/16 09:55:25;;;;;;;7.55;1.25;;;;;;;19.12;66.12;99879.34;4979952;28;20061;-38
2023/07/16 09:58:22;;;;;;;6.63;1.05;;;;;;;19.34;67.95;99882.59;4991397;28;20065;-38
2023/07/16 10:00:52;;;;;;;5.53;1.45;;;;;;;20.53;65.78;99878.84;4985657;28;20062;-39
2023/07/16 10:03:26;;;;;;;5.07;1.47;;;;;;;21.06;64.43;99883.31;4974751;28;20050;-39
2023/07/16 10:06:12;;;;;;;5.22;1.45;;;;;;;20.72;64.87;99885.69;4987799;28;20085;-39
2023/07/16 10:08:40;;;;;;;3.88;1.20;;;;;;;20.89;65.05;99895.78;4982240;28;20142;-39
2023/07/16 10:11:17;;;;;;;6.85;1.85;;;;;;;21.24;64.63;99892.16;4991458;28;20143;-39
2023/07/16 10:13:48;;;;;;;4.28;1.08;;;;;;;21.38;63.55;99893.84;4992225;28;20097;-39
2023/07/16 10:16:23;;;;;;;;;;;;;;;21.77;63.13;99902.91;4992988;28;20038;-40
2023/07/16 10:18:53;;;;;;;2.90;0.90;;;;;;;22.51;60.97;99902.16;4992351;28;20410;-41
2023/07/16 10:21:24;;;;;;;3.90;1.50;;;;;;;22.80;59.38;99900.91;4990696;28;20099;-39
2023/07/16 10:23:59;;;;;;;1.83;0.88;;;;;;;22.47;59.19;99898.66;4990952;28;20053;-39
2023/07/16 10:26:30;;;;;;;2.50;0.93;;;;;;;21.64;59.62;99895.63;4991571;28;20053;-39
2023/07/16 10:28:57;;;;;;;4.75;1.23;;;;;;;20.98;60.58;99893.94;4992327;28;20046;-40
2023/07/16 10:31:25;;;;;;;8.82;1.33;;;;;;;20.38;61.92;99900.88;4992232;28;20042;-39
2023/07/16 10:34:04;;;;;;;3.92;1.15;;;;;;;20.11;63.04;99885.31;4991414;28;20373;-39
2023/07/16 10:36:40;;;;;;;5.57;1.33;;;;;;;19.92;63.18;99887.66;4991984;28;20050;-39
2023/07/16 10:39:07;;;;;;;5.85;1.50;;;;;;;19.86;63.02;99888.56;4979879;28;20133;-39
2023/07/16 10:41:34;;;;;;;5.05;1.05;;;;;;;20.12;62.72;99903.75;4990199;28;20035;-39
2023/07/16 10:44:01;;;;;;;3.35;1.13;;;;;;;20.69;61.51;99901.44;4992179;28;20077;-39
2023/07/16 10:46:28;;;;;;;5.75;1.05;;;;;;;21.16;60.60;99893.56;4991657;28;20042;-39
2023/07/16 10:48:55;;;;;;;4.32;1.20;;;;;;;21.19;59.78;99901.94;4991936;28;20054;-39
2023/07/16 10:51:26;;;;;;;4.78;1.10;;;;;;;21.05;59.72;99899.41;4990450;28;20128;-40
2023/07/16 10:53:56;;;;;;;6.40;1.13;;;;;;;20.80;60.18;99898.38;4991967;28;20049;-39
2023/07/16 10:56:23;;;;;;;4.30;1.00;;;;;;;20.50;60.77;99914.25;4991921;28;20044;-39
2023/07/16 10:58:50;;;;;;;3.75;0.90;;;;;;;20.14;60.90;99901.31;4991736;28;20081;-40
2023/07/16 11:01:16;;;;;;;4.63;1.38;;;;;;;19.68;61.57;99900.13;4991197;28;20090;-40
2023/07/16 11:03:46;;;;;;;2.50;1.30;;;;;;;19.36;62.54;99913.84;4991869;28;20141;-39
2023/07/16 11:06:15;;;;;;;4.75;0.95;;;;;;;19.14;62.65;99929.44;4973757;28;20763;-40
2023/07/16 11:08:42;;;;;;;5.00;1.30;;;;;;;19.00;63.46;99918.41;4991336;28;20081;-39
2023/07/16 11:11:09;;;;;;;4.00;1.00;;;;;;;18.97;63.89;99924.84;4991254;28;20039;-39
2023/07/16 11:13:36;;;;;;;4.07;1.38;;;;;;;19.05;64.01;99932.75;4991269;28;20093;-39
2023/07/16 11:16:10;;;;;;;3.15;0.80;;;;;;;19.09;63.98;99929.91;4991145;28;20031;-39
2023/07/16 11:18:37;;;;;;;5.65;1.63;;;;;;;19.29;64.02;99925.19;4990521;28;20092;-39
2023/07/16 11:21:04;;;;;;;9.07;1.20;;;;;;;19.54;64.02;99922.03;4989662;28;20049;-39
2023/07/16 11:23:36;;;;;;;4.88;1.50;;;;;;;19.67;63.50;99917.41;4990619;28;20073;-39
2023/07/16 11:26:04;;;;;;;3.65;1.42;;;;;;;19.64;63.70;99924.66;4973864;28;20053;-42
2023/07/16 11:28:41;;;;;;;7.07;1.98;;;;;;;19.51;63.84;99918.06;4990866;28;20484;-43
2023/07/16 11:31:15;;;;;;;3.58;0.98;;;;;;;19.32;64.38;99915.94;4962551;28;20046;-42
2023/07/16 11:33:43;;;;;;;3.40;1.60;;;;;;;19.28;64.44;99915.16;4991237;28;20046;-40